Time;durP1;ratioP1;P1;durP2;ratioP2;P2;SDS_P1;SDS_P2;PMS_P1;PMS_P2;Temp;Humidity;BMP_temperature;BMP_pressure;BME280_temperature;BME280_humidity;BME280_pressure;Samples;Min_cycle;Max_cycle;Signal;HPM_P1;HPM_P2
2023/01/11 00:01:38;;;;;;;0.65;0.65;;;;;;;4.92;78.42;99896.28;5115605;28;20043;-65
2023/01/11 00:04:08;;;;;;;0.33;0.33;;;;;;;4.91;78.47;99897.13;5115541;28;20489;-64
2023/01/11 00:06:37;;;;;;;0.57;0.57;;;;;;;4.91;78.13;99892.06;5115561;28;20044;-65
2023/01/11 00:09:06;;;;;;;2.80;1.50;;;;;;;4.92;78.08;99903.03;5115696;28;20031;-65
2023/01/11 00:11:34;;;;;;;1.10;1.05;;;;;;;4.89;78.19;99901.28;5115464;28;20497;-64
2023/01/11 00:14:03;;;;;;;0.40;0.40;;;;;;;4.88;78.00;99894.50;5115646;27;20090;-64
2023/01/11 00:16:32;;;;;;;0.73;0.73;;;;;;;4.83;78.32;99903.66;5114682;28;20040;-64
2023/01/11 00:19:01;;;;;;;0.60;0.60;;;;;;;4.83;78.12;99901.13;5115299;28;20039;-65
2023/01/11 00:21:31;;;;;;;0.70;0.70;;;;;;;4.80;77.99;99898.50;5115561;28;20036;-64
2023/01/11 00:24:00;;;;;;;0.60;0.60;;;;;;;4.78;78.41;99905.19;5115185;28;20292;-64
2023/01/11 00:26:29;;;;;;;0.63;0.63;;;;;;;4.77;77.95;99903.50;5115599;28;20450;-65
2023/01/11 00:28:58;;;;;;;;;;;;;;;4.74;78.14;99900.88;5115761;28;20401;-64
2023/01/11 00:31:27;;;;;;;0.40;0.40;;;;;;;4.74;78.34;99913.53;5114939;28;19920;-64
2023/01/11 00:33:56;;;;;;;0.98;0.95;;;;;;;4.73;78.10;99906.75;5115528;28;20044;-65
2023/01/11 00:36:24;;;;;;;0.60;0.60;;;;;;;4.72;78.09;99910.13;5114983;28;20044;-65
2023/01/11 00:38:55;;;;;;;0.60;0.60;;;;;;;4.74;77.85;99913.53;5115172;28;20276;-64
2023/01/11 00:49:19;;;;;;;0.30;0.30;;;;;;;4.73;78.05;99916.84;5114628;28;20046;-65
2023/01/11 00:51:48;;;;;;;0.43;0.43;;;;;;;4.70;78.17;99917.63;5113477;28;20051;-64
2023/01/11 00:54:18;;;;;;;0.53;0.53;;;;;;;4.69;77.94;99910.03;5114870;28;20069;-65
2023/01/11 00:56:47;;;;;;;0.50;0.50;;;;;;;4.71;78.12;99918.50;5114534;28;20130;-64
2023/01/11 00:59:16;;;;;;;0.60;0.60;;;;;;;4.71;78.21;99918.50;5115410;28;20363;-65
2023/01/11 01:01:45;;;;;;;0.30;0.30;;;;;;;4.69;78.17;99915.06;5114425;28;20123;-65
2023/01/11 01:04:14;;;;;;;0.50;0.50;;;;;;;4.70;78.18;99911.75;5114377;28;20268;-65
2023/01/11 01:06:42;;;;;;;0.90;0.90;;;;;;;4.69;78.26;99910.88;5114308;28;20048;-65
2023/01/11 01:09:11;;;;;;;0.40;0.40;;;;;;;4.69;78.54;99910.03;5114679;28;20064;-65
2023/01/11 01:11:42;;;;;;;0.65;0.65;;;;;;;4.70;78.33;99916.81;5114261;28;20539;-65
2023/01/11 01:16:50;;;;;;;1.38;1.27;;;;;;;4.74;78.79;99908.47;5114221;28;20047;-65
2023/01/11 01:19:20;;;;;;;0.50;0.50;;;;;;;4.75;78.96;99910.19;5114196;28;20039;-65
2023/01/11 01:21:49;;;;;;;1.38;1.02;;;;;;;4.72;78.93;99907.59;5114161;28;20035;-65
2023/01/11 01:24:18;;;;;;;0.40;0.40;;;;;;;4.76;78.90;99916.94;5113145;28;20072;-65
2023/01/11 01:26:48;;;;;;;0.60;0.60;;;;;;;4.74;78.93;99911.00;5113584;28;20043;-65
2023/01/11 01:29:17;;;;;;;0.40;0.40;;;;;;;4.75;79.32;99915.25;5114237;28;20517;-65
2023/01/11 01:31:45;;;;;;;0.73;0.73;;;;;;;4.74;79.44;99913.53;5114016;28;20038;-65
2023/01/11 01:34:14;;;;;;;0.70;0.70;;;;;;;4.73;79.11;99916.84;5114041;28;20036;-65
2023/01/11 01:36:43;;;;;;;2.13;1.38;;;;;;;4.67;79.29;99917.59;5114274;28;20520;-65
2023/01/11 01:39:12;;;;;;;;;;;;;;;4.67;79.71;99909.13;5114440;28;20040;-65
2023/01/11 01:41:41;;;;;;;1.25;1.08;;;;;;;4.66;79.59;99909.94;5113930;28;19926;-64
2023/01/11 01:44:35;;;;;;;0.60;0.60;;;;;;;4.62;79.85;99913.22;5114517;28;20092;-64
2023/01/11 01:47:06;;;;;;;0.40;0.40;;;;;;;4.61;80.18;99924.97;5113628;28;20044;-65
2023/01/11 01:49:34;;;;;;;0.40;0.40;;;;;;;4.60;79.82;99918.22;5114159;28;20138;-65
2023/01/11 01:52:03;;;;;;;2.83;2.05;;;;;;;4.62;80.34;99913.22;5113747;28;20045;-64
2023/01/11 01:54:39;;;;;;;0.47;0.47;;;;;;;4.63;80.35;99917.47;5113592;28;20051;-64
2023/01/11 01:57:15;;;;;;;1.45;1.35;;;;;;;4.61;80.52;99911.47;5114082;28;20233;-65
2023/01/11 01:59:50;;;;;;;0.70;0.70;;;;;;;4.61;80.42;99911.47;5114386;28;20439;-64
2023/01/11 02:02:25;;;;;;;1.77;1.65;;;;;;;4.62;80.58;99905.63;5114061;28;20047;-64
2023/01/11 02:04:57;;;;;;;0.40;0.40;;;;;;;4.63;80.32;99907.34;5113994;28;20667;-64
2023/01/11 02:07:30;;;;;;;0.70;0.70;;;;;;;4.64;80.45;99907.38;5113711;28;20047;-64
2023/01/11 02:10:03;;;;;;;0.40;0.40;;;;;;;4.66;80.60;99909.94;5113729;28;20036;-64
2023/01/11 02:12:36;;;;;;;0.50;0.50;;;;;;;4.67;80.19;99916.72;5113697;28;20047;-64
2023/01/11 02:15:07;;;;;;;1.02;0.93;;;;;;;4.65;80.26;99908.25;5114014;28;20090;-64
2023/01/11 02:17:40;;;;;;;0.60;0.60;;;;;;;4.66;80.52;99910.78;5113773;28;20052;-64
2023/01/11 02:20:22;;;;;;;0.55;0.55;;;;;;;4.67;80.30;99906.59;5113813;28;20047;-64
2023/01/11 02:23:13;;;;;;;0.43;0.43;;;;;;;4.67;80.38;99916.72;5113697;28;20497;-64
2023/01/11 02:26:07;;;;;;;1.23;1.17;;;;;;;4.67;80.17;99912.53;5113588;28;20089;-65
2023/01/11 02:28:43;;;;;;;1.90;1.05;;;;;;;4.66;80.28;99909.94;5113519;28;20052;-65
2023/01/11 02:31:22;;;;;;;0.95;0.93;;;;;;;4.63;80.11;99917.47;5113505;28;20393;-64
2023/01/11 02:34:02;;;;;;;0.30;0.30;;;;;;;4.60;79.95;99910.66;5112618;28;20048;-64
2023/01/11 02:36:38;;;;;;;0.50;0.50;;;;;;;4.61;80.39;99916.53;5113481;28;20071;-64
2023/01/11 02:39:16;;;;;;;0.47;0.47;;;;;;;4.59;80.17;99908.06;5113756;28;20047;-65
2023/01/11 02:47:24;;;;;;;0.60;0.60;;;;;;;4.59;80.07;99910.59;5117119;28;20127;-65
2023/01/11 02:49:59;;;;;;;0.40;0.40;;;;;;;4.61;80.13;99911.47;5117760;28;20051;-64
2023/01/11 02:52:36;;;;;;;0.70;0.70;;;;;;;4.59;80.44;99908.06;5116941;28;20039;-66
2023/01/11 02:55:09;;;;;;;0.70;0.70;;;;;;;4.60;80.44;99912.31;5116716;28;20058;-65
2023/01/11 02:57:41;;;;;;;0.60;0.60;;;;;;;4.59;79.90;99903.00;5116954;28;20135;-65
2023/01/11 03:00:19;;;;;;;0.47;0.47;;;;;;;4.56;79.90;99907.97;5116763;28;20050;-65
2023/01/11 03:03:06;;;;;;;0.40;0.40;;;;;;;4.51;80.28;99914.59;5116821;28;20071;-64
2023/01/11 03:05:39;;;;;;;0.82;0.82;;;;;;;4.52;80.20;99913.78;5116772;28;20053;-65
2023/01/11 03:08:22;;;;;;;0.80;0.73;;;;;;;4.52;80.38;99906.19;5116703;28;20077;-65
2023/01/11 03:11:02;;;;;;;0.60;0.60;;;;;;;4.51;80.50;99899.44;5116851;28;20040;-65
2023/01/11 03:13:35;;;;;;;;;;;;;;;4.49;80.49;99896.00;5117052;28;20055;-64
2023/01/11 03:16:23;;;;;;;1.45;1.35;;;;;;;4.49;80.67;99896.00;5116561;28;20365;-64
2023/01/11 03:19:01;;;;;;;0.43;0.43;;;;;;;4.48;80.70;99899.34;5116561;28;20047;-64
2023/01/11 03:21:48;;;;;;;0.40;0.40;;;;;;;4.48;80.86;99901.88;5116417;28;20069;-65
2023/01/11 03:24:28;;;;;;;0.60;0.60;;;;;;;4.48;80.59;99904.41;5115230;28;20097;-64
2023/01/11 03:27:12;;;;;;;0.65;0.65;;;;;;;4.47;80.56;99907.75;5115694;28;20485;-65
2023/01/11 03:29:51;;;;;;;0.40;0.40;;;;;;;4.44;80.68;99905.16;5116598;28;20039;-64
2023/01/11 03:32:30;;;;;;;0.50;0.50;;;;;;;4.44;80.46;99907.69;5116116;28;20039;-64
2023/01/11 03:35:04;;;;;;;;;;;;;;;4.43;80.28;99905.94;5116605;28;20093;-64
2023/01/11 03:37:37;;;;;;;0.73;0.73;;;;;;;4.39;80.55;99897.41;5116531;28;19919;-64
2023/01/11 03:40:10;;;;;;;0.95;0.95;;;;;;;4.38;80.46;99897.38;5116360;28;20055;-64
2023/01/11 03:45:30;;;;;;;0.32;0.32;;;;;;;4.40;79.99;99891.56;5115776;28;20044;-64
2023/01/11 03:48:03;;;;;;;0.40;0.40;;;;;;;4.44;79.69;99884.94;5115975;28;20050;-64
2023/01/11 03:50:34;;;;;;;0.47;0.47;;;;;;;4.45;79.91;99886.63;5114910;28;20044;-64
2023/01/11 03:53:06;;;;;;;0.50;0.50;;;;;;;4.42;79.71;99884.00;5116024;28;20489;-64
2023/01/11 03:55:39;;;;;;;0.40;0.40;;;;;;;4.41;79.66;99878.13;5115867;28;20108;-64
2023/01/11 03:58:09;;;;;;;0.30;0.30;;;;;;;4.41;79.53;99872.22;5116041;28;20097;-65
2023/01/11 04:00:38;;;;;;;;;;;;;;;4.42;79.47;99873.91;5115245;28;20059;-65
2023/01/11 04:03:11;;;;;;;0.50;0.50;;;;;;;4.45;79.37;99881.56;5115548;28;19969;-65
2023/01/11 04:05:43;;;;;;;0.38;0.38;;;;;;;4.45;79.05;99874.00;5115593;28;20077;-65
2023/01/11 04:08:11;;;;;;;0.50;0.50;;;;;;;4.48;78.96;99884.19;5115845;28;20051;-64
2023/01/11 04:10:40;;;;;;;1.15;1.08;;;;;;;4.49;79.05;99880.84;5115479;28;20036;-64
2023/01/11 04:13:09;;;;;;;1.97;1.83;;;;;;;4.49;79.10;99875.78;5115268;28;20040;-65
2023/01/11 04:15:38;;;;;;;0.40;0.40;;;;;;;4.49;78.70;99880.84;5115715;28;20159;-64
2023/01/11 04:18:08;;;;;;;1.67;1.57;;;;;;;4.48;78.86;99874.09;5115374;28;20043;-64
2023/01/11 04:20:39;;;;;;;0.40;0.40;;;;;;;4.48;78.75;99869.91;5115564;28;20129;-64
2023/01/11 04:23:09;;;;;;;0.50;0.50;;;;;;;4.45;78.58;99863.88;5115259;28;20117;-66
2023/01/11 04:25:38;;;;;;;0.45;0.45;;;;;;;4.49;78.32;99875.78;5115499;28;20443;-65
2023/01/11 04:28:06;;;;;;;0.40;0.40;;;;;;;4.48;78.34;99871.56;5115082;28;20043;-64
2023/01/11 04:30:36;;;;;;;0.50;0.50;;;;;;;4.47;78.02;99867.31;5115090;28;20088;-65
2023/01/11 04:33:04;;;;;;;0.60;0.60;;;;;;;4.46;78.11;99870.66;5115239;28;20062;-65
2023/01/11 04:35:34;;;;;;;0.40;0.40;;;;;;;4.45;78.01;99872.34;5115572;28;20509;-65
2023/01/11 04:38:03;;;;;;;1.70;1.42;;;;;;;4.45;77.48;99874.00;5115333;28;20043;-65
2023/01/11 04:40:32;;;;;;;0.40;0.40;;;;;;;4.43;77.61;99875.63;5114891;28;20085;-65
2023/01/11 04:43:01;;;;;;;0.77;0.77;;;;;;;4.40;77.66;99883.97;5115445;28;20039;-65
2023/01/11 04:45:29;;;;;;;0.50;0.50;;;;;;;4.33;77.42;99872.00;5115657;28;20067;-65
2023/01/11 04:47:58;;;;;;;0.50;0.50;;;;;;;4.27;77.88;99878.56;5115078;28;20432;-64
2023/01/11 04:50:27;;;;;;;0.70;0.70;;;;;;;4.25;77.79;99885.25;5114754;28;20047;-64
2023/01/11 04:52:58;;;;;;;0.50;0.50;;;;;;;4.18;77.85;99880.81;5114483;28;20058;-64
2023/01/11 04:55:27;;;;;;;0.65;0.63;;;;;;;4.14;77.97;99886.59;5114529;28;20059;-64
2023/01/11 04:57:55;;;;;;;0.60;0.60;;;;;;;4.06;77.87;99884.72;5113385;28;20406;-64
2023/01/11 05:00:24;;;;;;;0.40;0.40;;;;;;;4.04;77.68;99883.84;5114628;28;20481;-64
2023/01/11 05:02:52;;;;;;;0.77;0.70;;;;;;;4.04;78.06;99886.34;5114310;28;20047;-64
2023/01/11 05:05:21;;;;;;;0.38;0.38;;;;;;;4.01;77.83;99883.72;5114366;28;20039;-64
2023/01/11 05:07:50;;;;;;;0.40;0.40;;;;;;;4.00;78.21;99889.63;5114424;28;20071;-64
2023/01/11 05:10:20;;;;;;;0.50;0.50;;;;;;;4.00;78.14;99884.56;5114899;28;20036;-64
2023/01/11 05:12:51;;;;;;;0.70;0.70;;;;;;;4.01;78.15;99881.22;5114277;28;20071;-64
2023/01/11 05:15:20;;;;;;;0.52;0.52;;;;;;;4.04;77.47;99881.31;5112583;28;20044;-65
2023/01/11 05:17:49;;;;;;;0.60;0.60;;;;;;;4.05;78.00;99882.16;5114283;28;20064;-64
2023/01/11 05:20:18;;;;;;;0.60;0.60;;;;;;;3.77;77.55;99824.13;5114473;28;20163;-64
2023/01/11 05:22:47;;;;;;;3.15;1.70;;;;;;;4.04;77.15;99876.25;5114203;28;20047;-64
2023/01/11 05:25:16;;;;;;;0.68;0.68;;;;;;;4.04;77.10;99876.25;5114413;28;20497;-64
2023/01/11 05:27:47;;;;;;;0.67;0.67;;;;;;;4.04;77.50;99876.25;5114448;28;20503;-64
2023/01/11 05:30:16;;;;;;;0.88;0.88;;;;;;;4.04;77.31;99881.31;5114482;28;20519;-64
2023/01/11 05:32:45;;;;;;;0.40;0.40;;;;;;;4.06;77.74;99883.84;5114047;28;20040;-64
2023/01/11 05:35:14;;;;;;;0.67;0.67;;;;;;;4.07;77.32;99878.88;5114266;28;20118;-65
2023/01/11 05:37:42;;;;;;;1.60;1.50;;;;;;;4.07;77.26;99885.59;5114043;28;20078;-64
2023/01/11 05:40:12;;;;;;;0.73;0.73;;;;;;;4.07;77.20;99899.06;5114340;28;20279;-64
2023/01/11 05:42:41;;;;;;;0.50;0.50;;;;;;;4.03;77.48;99893.91;5113966;28;20509;-64
2023/01/11 05:47:53;;;;;;;3.97;1.33;;;;;;;4.02;76.93;99902.28;5114349;28;20272;-64
2023/01/11 05:50:21;;;;;;;11.25;7.15;;;;;;;3.99;77.58;99898.00;5113875;28;20052;-64
2023/01/11 05:52:50;;;;;;;3.72;3.42;;;;;;;3.97;77.16;99899.63;5113776;28;20122;-64
2023/01/11 05:55:19;;;;;;;3.40;2.47;;;;;;;3.97;77.36;99899.63;5113735;28;20418;-65
2023/01/11 05:57:49;;;;;;;6.70;3.50;;;;;;;3.93;77.00;99895.31;5113980;28;20108;-64
2023/01/11 06:00:20;;;;;;;1.60;1.50;;;;;;;3.93;77.72;99892.78;5113739;28;20044;-64
2023/01/11 06:02:50;;;;;;;0.55;0.55;;;;;;;3.94;77.71;99894.47;5113842;28;20189;-65
2023/01/11 06:05:19;;;;;;;0.50;0.50;;;;;;;3.93;77.49;99887.72;5114212;28;20040;-65
2023/01/11 06:07:48;;;;;;;0.60;0.60;;;;;;;3.92;77.45;99895.25;5113855;28;20553;-65
2023/01/11 06:10:17;;;;;;;0.40;0.40;;;;;;;3.90;77.44;99897.72;5113614;28;20044;-65
2023/01/11 06:13:25;;;;;;;0.50;0.50;;;;;;;3.88;77.53;99899.34;5113866;28;20042;-65
2023/01/11 06:15:41;;;;;;;0.93;0.93;;;;;;;3.83;77.30;99898.38;5117538;28;20596;-65
2023/01/11 06:18:10;;;;;;;0.68;0.68;;;;;;;3.77;78.19;99895.66;5117617;28;20123;-64
2023/01/11 06:20:39;;;;;;;0.60;0.60;;;;;;;3.71;78.37;99890.44;5117608;27;20117;-65
2023/01/11 06:23:08;;;;;;;0.65;0.65;;;;;;;3.68;77.81;99889.47;5117465;28;20082;-64
2023/01/11 06:25:37;;;;;;;1.13;1.07;;;;;;;3.65;77.88;99885.19;5117520;28;20063;-64
2023/01/11 06:28:06;;;;;;;0.45;0.45;;;;;;;3.62;78.56;99887.63;5117459;28;20036;-64
2023/01/11 06:30:34;;;;;;;3.27;3.03;;;;;;;3.58;78.59;99877.38;5117705;28;20428;-64
2023/01/11 06:33:05;;;;;;;0.53;0.53;;;;;;;3.57;78.64;99881.59;5117491;28;20284;-64
2023/01/11 06:35:38;;;;;;;2.28;1.63;;;;;;;3.56;78.63;99884.06;5117583;28;20134;-64
2023/01/11 06:38:08;;;;;;;0.60;0.60;;;;;;;3.49;78.80;99877.97;5117625;28;20434;-64
2023/01/11 06:40:38;;;;;;;1.40;1.30;;;;;;;3.40;78.06;99887.78;5117466;28;20588;-64
2023/01/11 06:43:08;;;;;;;1.50;1.40;;;;;;;3.31;79.09;99879.94;5117173;28;20048;-64
2023/01/11 06:45:38;;;;;;;1.15;1.15;;;;;;;3.31;78.73;99887.50;5117426;28;20052;-64
2023/01/11 06:48:08;;;;;;;1.77;1.67;;;;;;;3.19;78.71;99882.09;5117061;28;20063;-64
2023/01/11 06:50:37;;;;;;;0.57;0.57;;;;;;;3.15;79.51;99880.25;5116946;28;20047;-64
2023/01/11 06:53:06;;;;;;;0.77;0.77;;;;;;;3.10;79.14;99885.16;5116854;28;20062;-64
2023/01/11 06:55:35;;;;;;;1.02;1.02;;;;;;;3.11;79.58;99889.41;5116847;28;20422;-64
2023/01/11 06:58:04;;;;;;;1.45;1.35;;;;;;;3.13;79.89;99907.94;5117170;28;20497;-64
2023/01/11 07:00:33;;;;;;;0.60;0.60;;;;;;;3.22;79.25;99902.34;5117159;28;20040;-64
2023/01/11 07:03:03;;;;;;;0.97;0.93;;;;;;;3.42;79.44;99906.34;5116724;28;20043;-64
2023/01/11 07:05:35;;;;;;;0.30;0.30;;;;;;;3.73;79.52;99909.00;5116773;28;20047;-64
2023/01/11 07:08:05;;;;;;;0.70;0.70;;;;;;;3.83;79.27;99915.16;5116999;28;20047;-64
2023/01/11 07:10:34;;;;;;;0.95;0.90;;;;;;;3.94;78.92;99917.19;5116603;28;20105;-65
2023/01/11 07:13:03;;;;;;;2.03;1.83;;;;;;;4.07;79.13;99909.19;5116833;28;20470;-65
2023/01/11 07:15:32;;;;;;;0.77;0.77;;;;;;;4.22;78.81;99902.84;5116529;28;20032;-65
2023/01/11 07:18:01;;;;;;;1.20;1.10;;;;;;;4.44;78.58;99907.69;5116766;28;20051;-65
2023/01/11 07:20:30;;;;;;;0.50;0.50;;;;;;;4.76;78.24;99911.91;5116387;28;20126;-65
2023/01/11 07:23:02;;;;;;;1.45;1.35;;;;;;;5.04;77.96;99914.28;5116702;28;20124;-65
2023/01/11 07:25:31;;;;;;;0.65;0.65;;;;;;;5.16;77.18;99914.59;5116524;28;20047;-65
2023/01/11 07:28:01;;;;;;;0.40;0.40;;;;;;;5.26;76.60;99920.75;5116508;28;20122;-64
2023/01/11 07:30:33;;;;;;;0.60;0.60;;;;;;;5.27;76.00;99923.31;5116846;28;20497;-64
2023/01/11 07:33:22;;;;;;;0.68;0.68;;;;;;;5.26;75.78;99921.59;5115810;28;20043;-64
2023/01/11 07:35:50;;;;;;;1.97;1.77;;;;;;;5.17;75.75;99921.38;5116027;28;20040;-65
2023/01/11 07:38:21;;;;;;;0.70;0.70;;;;;;;5.17;75.78;99926.44;5116076;28;20036;-65
2023/01/11 07:40:50;;;;;;;2.00;1.80;;;;;;;5.17;75.90;99921.38;5115206;28;20039;-65
2023/01/11 07:43:20;;;;;;;1.73;1.63;;;;;;;5.16;75.47;99928.94;5115990;28;20039;-65
2023/01/11 07:45:51;;;;;;;5.30;1.48;;;;;;;5.26;75.48;99930.84;5110589;28;20486;-65
2023/01/11 07:48:25;;;;;;;1.20;1.10;;;;;;;5.31;75.37;99934.34;5108689;28;20043;-64
2023/01/11 07:50:55;;;;;;;0.75;0.75;;;;;;;5.28;75.17;99930.09;5101903;28;20489;-64
2023/01/11 07:53:25;;;;;;;2.10;1.30;;;;;;;5.36;75.28;99932.78;5101724;28;20122;-64
2023/01/11 07:55:55;;;;;;;1.02;1.02;;;;;;;5.41;75.04;99929.56;5111717;28;20316;-64
2023/01/11 07:58:24;;;;;;;1.13;1.00;;;;;;;5.42;75.08;99922.84;5095329;28;20043;-64
2023/01/11 08:00:53;;;;;;;0.57;0.57;;;;;;;5.49;75.16;99929.75;5094335;28;20044;-64
2023/01/11 08:03:22;;;;;;;0.60;0.60;;;;;;;5.51;75.02;99925.56;5095449;28;20277;-64
2023/01/11 08:05:51;;;;;;;0.80;0.80;;;;;;;5.48;74.82;99932.22;5095453;28;20397;-64
2023/01/11 08:08:20;;;;;;;4.78;1.83;;;;;;;5.51;74.59;99927.25;5095119;28;20300;-64
2023/01/11 08:14:38;;;;;;;0.60;0.60;;;;;;;5.57;74.56;99927.38;5095117;28;20455;-64
2023/01/11 08:16:17;;;;;;;2.50;2.30;;;;;;;5.70;74.43;99930.25;5100509;28;20051;-65
2023/01/11 08:18:46;;;;;;;1.60;1.13;;;;;;;5.78;73.97;99938.00;5115390;28;20067;-64
2023/01/11 08:21:16;;;;;;;1.08;0.93;;;;;;;5.82;73.77;99934.72;5115133;28;20485;-64
2023/01/11 08:23:44;;;;;;;;;;;;;;;5.85;73.27;99937.34;5105822;28;20042;-65
2023/01/11 08:26:16;;;;;;;0.57;0.57;;;;;;;5.74;72.88;99933.69;5104298;28;19920;-64
2023/01/11 08:28:46;;;;;;;27.88;3.33;;;;;;;5.77;73.39;99933.75;5103349;28;20273;-65
2023/01/11 08:31:16;;;;;;;1.15;1.13;;;;;;;5.88;73.62;99939.94;5104445;28;20394;-65
2023/01/11 08:33:45;;;;;;;1.98;1.58;;;;;;;5.96;72.86;99943.50;5104994;28;20126;-64
2023/01/11 08:36:14;;;;;;;0.60;0.60;;;;;;;5.94;72.91;99951.06;5103566;28;20035;-64
2023/01/11 08:38:43;;;;;;;0.40;0.40;;;;;;;6.10;72.67;99942.13;5103268;28;20068;-65
2023/01/11 08:41:13;;;;;;;0.40;0.40;;;;;;;6.16;72.65;99952.41;5104738;28;20039;-65
2023/01/11 08:43:44;;;;;;;1.17;0.98;;;;;;;6.20;72.42;99944.03;5105188;28;20055;-64
2023/01/11 08:46:12;;;;;;;0.63;0.63;;;;;;;6.29;71.67;99956.88;5103923;28;20036;-64
2023/01/11 08:48:41;;;;;;;1.38;1.27;;;;;;;6.25;71.17;99955.13;5103300;28;20393;-64
2023/01/11 08:51:10;;;;;;;0.93;0.93;;;;;;;6.19;71.04;99952.44;5103448;28;20044;-64
2023/01/11 08:53:39;;;;;;;0.77;0.77;;;;;;;6.26;71.50;99954.31;5103131;28;20127;-65
2023/01/11 08:56:08;;;;;;;0.40;0.40;;;;;;;6.40;70.94;99952.91;5099925;28;20502;-64
2023/01/11 08:58:37;;;;;;;0.53;0.53;;;;;;;6.45;70.90;99956.38;5102921;28;20830;-64
2023/01/11 09:01:08;;;;;;;0.55;0.55;;;;;;;6.59;70.62;99964.25;5104435;28;20098;-65
2023/01/11 09:03:37;;;;;;;0.68;0.68;;;;;;;6.79;70.76;99959.56;5107265;28;20051;-65
2023/01/11 09:06:07;;;;;;;0.98;0.93;;;;;;;6.89;70.46;99956.34;5104682;28;20042;-65
2023/01/11 09:08:35;;;;;;;;;;;;;;;6.90;70.38;99955.53;5095638;28;20048;-66
2023/01/11 09:11:52;;;;;;;0.67;0.67;;;;;;;6.79;69.88;99957.84;5093343;28;20010;-64
2023/01/11 09:13:53;;;;;;;3.17;2.17;;;;;;;6.77;69.42;99953.63;5093226;28;20036;-65
2023/01/11 09:16:23;;;;;;;1.38;1.10;;;;;;;6.91;69.94;99947.13;5093602;28;20040;-65
2023/01/11 09:18:54;;;;;;;1.45;1.35;;;;;;;6.96;69.77;99946.34;5093864;28;20052;-65
2023/01/11 09:21:24;;;;;;;1.08;0.98;;;;;;;6.86;69.09;99948.72;5093726;28;20036;-65
2023/01/11 09:23:52;;;;;;;2.83;2.30;;;;;;;6.78;69.67;99955.31;5092620;28;20047;-65
2023/01/11 09:26:21;;;;;;;1.13;1.02;;;;;;;6.86;69.46;99958.84;5094023;28;20085;-65
2023/01/11 09:28:50;;;;;;;2.73;1.97;;;;;;;6.95;69.48;99964.09;5093561;28;20093;-67
2023/01/11 09:31:19;;;;;;;1.10;0.95;;;;;;;7.06;69.60;99957.50;5104222;28;20040;-64
2023/01/11 09:33:50;;;;;;;0.60;0.60;;;;;;;7.08;69.37;99961.78;5113939;28;20043;-65
2023/01/11 09:36:20;;;;;;;1.13;1.02;;;;;;;7.08;69.44;99955.88;5113998;28;20105;-64
2023/01/11 09:38:51;;;;;;;0.75;0.75;;;;;;;7.16;68.94;99949.22;5108427;28;20050;-65
2023/01/11 09:41:38;;;;;;;1.08;0.88;;;;;;;7.22;68.84;99944.28;5104505;28;20440;-65
2023/01/11 09:44:13;;;;;;;0.75;0.75;;;;;;;7.36;68.78;99940.28;5093771;28;20036;-65
2023/01/11 09:46:46;;;;;;;1.65;1.45;;;;;;;7.33;68.62;99937.69;5093154;28;20128;-65
2023/01/11 09:49:23;;;;;;;0.82;0.82;;;;;;;7.43;69.07;99942.09;5094993;28;20062;-65
2023/01/11 09:52:00;;;;;;;0.60;0.60;;;;;;;7.42;68.21;99932.75;5097710;28;20136;-65
2023/01/11 09:54:29;;;;;;;1.17;1.10;;;;;;;7.56;69.29;99925.34;5103215;28;20047;-65
2023/01/11 09:57:10;;;;;;;1.17;1.17;;;;;;;7.65;69.04;99916.19;5118439;28;20138;-65
2023/01/11 09:59:47;;;;;;;0.82;0.82;;;;;;;7.81;67.78;99918.09;5117968;28;20450;-65
2023/01/11 10:02:36;;;;;;;1.15;1.05;;;;;;;7.92;68.00;99911.47;5118034;28;20089;-64
2023/01/11 10:05:28;;;;;;;0.75;0.75;;;;;;;7.96;67.37;99908.16;5104405;28;20035;-65
2023/01/11 10:08:18;;;;;;;0.85;0.85;;;;;;;7.78;66.90;99901.94;5110765;28;20044;-65
2023/01/11 10:11:19;;;;;;;1.05;0.95;;;;;;;7.71;66.85;99897.63;5097670;28;20393;-65
2023/01/11 10:14:25;;;;;;;1.25;1.15;;;;;;;8.06;66.94;99894.72;5110208;28;20058;-65
2023/01/11 10:17:29;;;;;;;1.15;1.05;;;;;;;8.11;66.56;99895.63;5117870;28;20079;-65
2023/01/11 10:20:26;;;;;;;1.88;0.95;;;;;;;8.13;66.68;99889.72;5117937;28;20043;-65
2023/01/11 10:23:05;;;;;;;0.52;0.52;;;;;;;8.29;66.84;99886.56;5095083;28;20070;-65
2023/01/11 10:25:43;;;;;;;0.93;0.90;;;;;;;8.52;66.23;99890.19;5106350;28;20042;-65
2023/01/11 10:28:22;;;;;;;1.88;1.77;;;;;;;8.42;66.49;99893.50;5109108;28;20089;-65
2023/01/11 10:31:06;;;;;;;0.57;0.57;;;;;;;8.29;65.83;99889.09;5111184;28;20054;-65
2023/01/11 10:36:38;;;;;;;1.30;1.05;;;;;;;8.31;65.72;99885.75;5107664;28;20043;-65
2023/01/11 10:39:34;;;;;;;1.58;1.25;;;;;;;8.40;64.21;99884.97;5101984;28;20079;-64
2023/01/11 10:42:10;;;;;;;0.90;0.90;;;;;;;8.56;63.97;99886.88;5097148;28;20047;-64
2023/01/11 10:44:46;;;;;;;0.55;0.55;;;;;;;8.62;63.70;99892.00;5097133;28;20044;-65
2023/01/11 10:47:19;;;;;;;0.63;0.60;;;;;;;8.56;63.20;99884.31;5096706;28;20551;-64
2023/01/11 10:49:53;;;;;;;1.10;1.10;;;;;;;8.71;62.54;99881.91;5096729;28;20056;-64
2023/01/11 10:52:37;;;;;;;0.65;0.65;;;;;;;8.67;62.29;99891.22;5096603;28;20089;-65
2023/01/11 10:55:14;;;;;;;0.70;0.65;;;;;;;8.87;62.31;99888.88;5097536;28;20051;-65
2023/01/11 10:57:56;;;;;;;0.40;0.40;;;;;;;8.84;62.03;99899.03;5116843;28;20123;-64
2023/01/11 11:00:41;;;;;;;1.75;1.33;;;;;;;8.74;61.75;99902.31;5115878;28;20047;-65
2023/01/11 11:03:39;;;;;;;6.40;1.23;;;;;;;8.68;62.23;99897.16;5116683;28;20039;-65
2023/01/11 11:06:13;;;;;;;1.02;0.93;;;;;;;8.70;61.56;99890.41;5115853;28;20456;-65
2023/01/11 11:08:53;;;;;;;0.43;0.43;;;;;;;8.89;61.23;99877.00;5117068;28;20044;-65
2023/01/11 11:11:30;;;;;;;0.77;0.77;;;;;;;8.64;60.88;99885.22;5116700;28;20130;-64
2023/01/11 11:14:04;;;;;;;3.78;1.85;;;;;;;8.50;61.35;99876.59;5116648;28;20040;-64
2023/01/11 11:16:52;;;;;;;0.70;0.70;;;;;;;8.49;61.78;99880.00;5117157;28;20052;-64
2023/01/11 11:19:25;;;;;;;0.70;0.70;;;;;;;8.80;62.07;99876.06;5116557;28;20127;-64
2023/01/11 11:21:55;;;;;;;1.17;1.08;;;;;;;9.18;61.95;99859.44;5116501;28;20044;-64
2023/01/11 11:24:32;;;;;;;0.93;0.93;;;;;;;9.10;60.99;99851.72;5109912;27;20117;-64
2023/01/11 11:27:19;;;;;;;1.95;1.48;;;;;;;8.84;61.22;99860.84;5097797;28;20064;-65
2023/01/11 11:29:51;;;;;;;0.68;0.68;;;;;;;8.89;61.35;99851.56;5095922;28;20050;-64
2023/01/11 11:32:25;;;;;;;1.95;0.80;;;;;;;8.93;61.03;99858.38;5104728;28;20081;-64
2023/01/11 11:34:54;;;;;;;0.40;0.40;;;;;;;9.01;61.34;99851.66;5095725;28;20095;-65
2023/01/11 11:37:31;;;;;;;0.50;0.50;;;;;;;9.23;61.21;99848.47;5095937;28;20094;-64
2023/01/11 11:40:02;;;;;;;0.98;0.93;;;;;;;9.32;60.25;99835.78;5096114;28;20052;-64
2023/01/11 11:42:31;;;;;;;0.70;0.70;;;;;;;9.27;60.43;99845.06;5095971;28;20044;-64
2023/01/11 11:45:15;;;;;;;1.77;1.13;;;;;;;9.56;60.64;99834.22;5095600;28;20041;-64
2023/01/11 11:48:01;;;;;;;1.40;1.27;;;;;;;9.92;60.87;99836.94;5095500;28;20043;-64
2023/01/11 11:50:30;;;;;;;1.27;1.00;;;;;;;10.02;60.07;99838.69;5095980;28;20044;-64
2023/01/11 11:53:34;;;;;;;1.95;1.55;;;;;;;10.00;59.52;99832.75;5095730;28;20056;-65
2023/01/11 11:56:18;;;;;;;1.58;1.10;;;;;;;10.09;59.35;99840.44;5095136;28;20056;-64
2023/01/11 11:58:47;;;;;;;1.15;1.05;;;;;;;10.24;59.33;99839.66;5098126;28;20048;-65
2023/01/11 12:01:24;;;;;;;0.82;0.82;;;;;;;10.33;59.41;99839.69;5107178;28;20151;-66
2023/01/11 12:03:57;;;;;;;0.63;0.63;;;;;;;10.42;58.83;99839.69;5101752;28;20063;-65
2023/01/11 12:06:28;;;;;;;1.75;1.30;;;;;;;10.42;59.12;99845.66;5102777;28;20055;-65
2023/01/11 12:09:00;;;;;;;0.73;0.73;;;;;;;10.53;58.93;99846.53;5106410;28;20081;-64
2023/01/11 12:11:34;;;;;;;2.40;1.88;;;;;;;10.57;58.89;99850.81;5102195;28;20043;-64
2023/01/11 12:14:15;;;;;;;0.80;0.80;;;;;;;10.47;58.19;99843.97;5101401;28;20035;-64
2023/01/11 12:16:46;;;;;;;3.55;1.73;;;;;;;10.61;58.44;99837.19;5101330;28;20044;-64
2023/01/11 12:19:26;;;;;;;0.98;0.95;;;;;;;10.74;57.96;99833.81;5097813;28;20042;-64
2023/01/11 12:22:11;;;;;;;0.50;0.50;;;;;;;10.92;57.94;99835.50;5105511;28;20032;-64
2023/01/11 12:24:40;;;;;;;1.85;1.10;;;;;;;11.09;57.91;99825.28;5094722;28;20089;-65
2023/01/11 12:27:20;;;;;;;0.77;0.77;;;;;;;11.58;57.51;99821.81;5094466;28;20036;-64
2023/01/11 12:30:07;;;;;;;1.23;1.13;;;;;;;11.84;56.02;99814.94;5094229;28;20032;-64
2023/01/11 12:33:07;;;;;;;1.40;1.30;;;;;;;12.09;55.45;99816.53;5094820;28;20064;-65
2023/01/11 12:35:51;;;;;;;1.25;1.15;;;;;;;12.56;54.38;99820.53;5094431;28;20188;-65
2023/01/11 12:38:38;;;;;;;4.50;2.13;;;;;;;12.72;53.81;99814.44;5094647;28;20549;-65
2023/01/11 12:41:42;;;;;;;1.85;1.02;;;;;;;12.92;52.71;99810.03;5094536;28;20051;-65